sensor_id;sensor_type;location;lat;lon;timestamp;temperature;humidity
48579;DHT22;34357;51.948;6.132;2022-09-27T00:00:09;10.30;93.50
48579;DHT22;34357;51.948;6.132;2022-09-27T00:02:39;10.30;93.60
48579;DHT22;34357;51.948;6.132;2022-09-27T00:05:05;10.30;93.60
48579;DHT22;34357;51.948;6.132;2022-09-27T00:07:30;10.30;93.60
48579;DHT22;34357;51.948;6.132;2022-09-27T00:09:56;10.20;93.60
48579;DHT22;34357;51.948;6.132;2022-09-27T00:12:22;10.30;93.70
48579;DHT22;34357;51.948;6.132;2022-09-27T00:14:48;10.30;93.70
48579;DHT22;34357;51.948;6.132;2022-09-27T00:17:14;10.20;93.70
48579;DHT22;34357;51.948;6.132;2022-09-27T00:19:42;10.20;93.70
48579;DHT22;34357;51.948;6.132;2022-09-27T00:22:08;10.20;93.70
48579;DHT22;34357;51.948;6.132;2022-09-27T00:24:33;10.20;93.70
48579;DHT22;34357;51.948;6.132;2022-09-27T00:26:59;10.20;93.70
48579;DHT22;34357;51.948;6.132;2022-09-27T00:29:25;10.20;93.70
48579;DHT22;34357;51.948;6.132;2022-09-27T00:31:51;10.20;93.60
48579;DHT22;34357;51.948;6.132;2022-09-27T00:34:19;10.20;93.70
48579;DHT22;34357;51.948;6.132;2022-09-27T00:36:46;10.20;93.70
48579;DHT22;34357;51.948;6.132;2022-09-27T00:39:13;10.20;93.70
48579;DHT22;34357;51.948;6.132;2022-09-27T00:41:39;10.20;93.70
48579;DHT22;34357;51.948;6.132;2022-09-27T00:49:23;10.20;93.50
48579;DHT22;34357;51.948;6.132;2022-09-27T00:52:01;10.10;93.50
48579;DHT22;34357;51.948;6.132;2022-09-27T00:54:28;10.10;93.50
48579;DHT22;34357;51.948;6.132;2022-09-27T00:56:56;10.20;93.50
48579;DHT22;34357;51.948;6.132;2022-09-27T01:01:57;10.10;93.50
48579;DHT22;34357;51.948;6.132;2022-09-27T01:04:28;10.20;93.50
48579;DHT22;34357;51.948;6.132;2022-09-27T01:06:55;10.10;93.40
48579;DHT22;34357;51.948;6.132;2022-09-27T01:09:22;10.20;93.40
48579;DHT22;34357;51.948;6.132;2022-09-27T01:32:33;10.10;93.10
48579;DHT22;34357;51.948;6.132;2022-09-27T01:35:39;10.10;93.10
48579;DHT22;34357;51.948;6.132;2022-09-27T01:38:20;10.00;93.10
48579;DHT22;34357;51.948;6.132;2022-09-27T01:47:12;10.10;93.20
48579;DHT22;34357;51.948;6.132;2022-09-27T01:52:30;10.00;93.10
48579;DHT22;34357;51.948;6.132;2022-09-27T01:55:00;10.00;93.10
48579;DHT22;34357;51.948;6.132;2022-09-27T01:57:58;10.00;93.20
48579;DHT22;34357;51.948;6.132;2022-09-27T02:00:25;10.00;93.20
48579;DHT22;34357;51.948;6.132;2022-09-27T02:03:00;9.90;93.30
48579;DHT22;34357;51.948;6.132;2022-09-27T02:05:54;9.90;93.20
48579;DHT22;34357;51.948;6.132;2022-09-27T02:12:10;9.80;93.20
48579;DHT22;34357;51.948;6.132;2022-09-27T02:23:14;9.60;93.30
48579;DHT22;34357;51.948;6.132;2022-09-27T02:25:50;9.50;93.30
48579;DHT22;34357;51.948;6.132;2022-09-27T02:28:24;9.40;93.30
48579;DHT22;34357;51.948;6.132;2022-09-27T02:30:52;9.40;93.40
48579;DHT22;34357;51.948;6.132;2022-09-27T02:33:27;9.40;93.40
48579;DHT22;34357;51.948;6.132;2022-09-27T02:35:55;9.30;93.40
48579;DHT22;34357;51.948;6.132;2022-09-27T02:38:21;9.30;93.40
48579;DHT22;34357;51.948;6.132;2022-09-27T02:40:48;9.30;93.40
48579;DHT22;34357;51.948;6.132;2022-09-27T02:43:16;9.20;93.30
48579;DHT22;34357;51.948;6.132;2022-09-27T02:45:57;9.30;93.40
48579;DHT22;34357;51.948;6.132;2022-09-27T02:52:09;9.30;93.40
48579;DHT22;34357;51.948;6.132;2022-09-27T02:55:05;9.30;93.40
48579;DHT22;34357;51.948;6.132;2022-09-27T03:01:22;9.10;93.50
48579;DHT22;34357;51.948;6.132;2022-09-27T03:04:27;9.10;93.40
48579;DHT22;34357;51.948;6.132;2022-09-27T03:06:55;9.10;93.50
48579;DHT22;34357;51.948;6.132;2022-09-27T03:09:27;9.10;93.50
48579;DHT22;34357;51.948;6.132;2022-09-27T03:11:53;9.10;93.50
48579;DHT22;34357;51.948;6.132;2022-09-27T03:14:19;9.00;93.50
48579;DHT22;34357;51.948;6.132;2022-09-27T03:16:56;9.00;93.50
48579;DHT22;34357;51.948;6.132;2022-09-27T03:19:54;9.00;93.50
48579;DHT22;34357;51.948;6.132;2022-09-27T03:22:44;9.00;93.50
48579;DHT22;34357;51.948;6.132;2022-09-27T03:25:11;8.90;93.50
48579;DHT22;34357;51.948;6.132;2022-09-27T03:27:37;9.00;93.50
48579;DHT22;34357;51.948;6.132;2022-09-27T03:30:03;9.00;93.50
48579;DHT22;34357;51.948;6.132;2022-09-27T03:32:31;8.90;93.40
48579;DHT22;34357;51.948;6.132;2022-09-27T03:35:26;9.00;93.50
48579;DHT22;34357;51.948;6.132;2022-09-27T03:37:52;9.00;93.50
48579;DHT22;34357;51.948;6.132;2022-09-27T03:40:18;9.00;93.50
48579;DHT22;34357;51.948;6.132;2022-09-27T03:42:44;9.10;93.50
48579;DHT22;34357;51.948;6.132;2022-09-27T03:45:10;9.00;93.50
48579;DHT22;34357;51.948;6.132;2022-09-27T03:47:39;9.10;93.50
48579;DHT22;34357;51.948;6.132;2022-09-27T03:50:06;9.10;93.50
48579;DHT22;34357;51.948;6.132;2022-09-27T03:52:33;9.10;93.50
48579;DHT22;34357;51.948;6.132;2022-09-27T03:54:59;9.10;93.40
48579;DHT22;34357;51.948;6.132;2022-09-27T03:57:25;9.10;93.40
48579;DHT22;34357;51.948;6.132;2022-09-27T03:59:51;9.10;93.50
48579;DHT22;34357;51.948;6.132;2022-09-27T04:02:49;9.10;93.40
48579;DHT22;34357;51.948;6.132;2022-09-27T04:05:21;9.20;93.30
48579;DHT22;34357;51.948;6.132;2022-09-27T04:07:47;9.10;93.40
48579;DHT22;34357;51.948;6.132;2022-09-27T04:10:15;9.10;93.30
48579;DHT22;34357;51.948;6.132;2022-09-27T04:12:42;9.10;93.40
48579;DHT22;34357;51.948;6.132;2022-09-27T04:15:08;9.00;93.30
48579;DHT22;34357;51.948;6.132;2022-09-27T04:17:49;9.10;93.40
48579;DHT22;34357;51.948;6.132;2022-09-27T04:20:37;9.10;93.40
48579;DHT22;34357;51.948;6.132;2022-09-27T04:23:07;9.10;93.30
48579;DHT22;34357;51.948;6.132;2022-09-27T04:25:35;9.10;93.30
48579;DHT22;34357;51.948;6.132;2022-09-27T04:28:08;9.10;93.40
48579;DHT22;34357;51.948;6.132;2022-09-27T04:30:33;9.10;93.40
48579;DHT22;34357;51.948;6.132;2022-09-27T04:33:11;9.20;93.40
48579;DHT22;34357;51.948;6.132;2022-09-27T04:35:43;9.30;93.40
48579;DHT22;34357;51.948;6.132;2022-09-27T04:38:28;9.20;93.20
48579;DHT22;34357;51.948;6.132;2022-09-27T04:40:54;9.30;93.10
48579;DHT22;34357;51.948;6.132;2022-09-27T04:43:20;9.30;93.10
48579;DHT22;34357;51.948;6.132;2022-09-27T04:45:45;9.30;93.10
48579;DHT22;34357;51.948;6.132;2022-09-27T04:48:11;9.30;93.00
48579;DHT22;34357;51.948;6.132;2022-09-27T04:50:38;9.30;93.10
48579;DHT22;34357;51.948;6.132;2022-09-27T04:53:05;9.30;93.00
48579;DHT22;34357;51.948;6.132;2022-09-27T04:55:31;9.30;93.00
48579;DHT22;34357;51.948;6.132;2022-09-27T04:57:58;9.30;93.00
48579;DHT22;34357;51.948;6.132;2022-09-27T05:00:26;9.30;92.90
48579;DHT22;34357;51.948;6.132;2022-09-27T05:03:00;9.30;92.80
48579;DHT22;34357;51.948;6.132;2022-09-27T05:05:39;9.30;92.80
48579;DHT22;34357;51.948;6.132;2022-09-27T05:08:06;9.30;92.80
48579;DHT22;34357;51.948;6.132;2022-09-27T05:10:53;9.40;92.90
48579;DHT22;34357;51.948;6.132;2022-09-27T05:13:19;9.40;92.80
48579;DHT22;34357;51.948;6.132;2022-09-27T05:15:44;9.30;92.80
48579;DHT22;34357;51.948;6.132;2022-09-27T05:18:29;9.20;92.80
48579;DHT22;34357;51.948;6.132;2022-09-27T05:21:24;9.20;92.70
48579;DHT22;34357;51.948;6.132;2022-09-27T05:23:50;9.20;92.80
48579;DHT22;34357;51.948;6.132;2022-09-27T05:26:17;9.10;92.70
48579;DHT22;34357;51.948;6.132;2022-09-27T05:28:42;9.20;92.80
48579;DHT22;34357;51.948;6.132;2022-09-27T05:31:08;9.20;92.70
48579;DHT22;34357;51.948;6.132;2022-09-27T05:33:38;9.10;92.80
48579;DHT22;34357;51.948;6.132;2022-09-27T05:36:24;9.10;92.70
48579;DHT22;34357;51.948;6.132;2022-09-27T05:38:50;9.00;92.70
48579;DHT22;34357;51.948;6.132;2022-09-27T05:41:18;9.10;92.70
48579;DHT22;34357;51.948;6.132;2022-09-27T05:43:44;9.10;92.60
48579;DHT22;34357;51.948;6.132;2022-09-27T05:46:12;9.10;92.60
48579;DHT22;34357;51.948;6.132;2022-09-27T05:48:41;9.00;92.60
48579;DHT22;34357;51.948;6.132;2022-09-27T05:51:07;9.00;92.60
48579;DHT22;34357;51.948;6.132;2022-09-27T05:53:36;9.00;92.40
48579;DHT22;34357;51.948;6.132;2022-09-27T05:56:04;9.00;92.30
48579;DHT22;34357;51.948;6.132;2022-09-27T05:58:53;9.00;92.20
48579;DHT22;34357;51.948;6.132;2022-09-27T06:01:19;9.00;92.00
48579;DHT22;34357;51.948;6.132;2022-09-27T06:04:10;9.00;91.90
48579;DHT22;34357;51.948;6.132;2022-09-27T06:06:43;8.90;91.80
48579;DHT22;34357;51.948;6.132;2022-09-27T06:09:10;8.90;91.80
48579;DHT22;34357;51.948;6.132;2022-09-27T06:11:37;8.90;91.80
48579;DHT22;34357;51.948;6.132;2022-09-27T06:14:03;8.90;91.70
48579;DHT22;34357;51.948;6.132;2022-09-27T06:16:35;8.90;91.70
48579;DHT22;34357;51.948;6.132;2022-09-27T06:19:01;8.90;91.70
48579;DHT22;34357;51.948;6.132;2022-09-27T06:21:29;8.90;91.70
48579;DHT22;34357;51.948;6.132;2022-09-27T06:23:57;8.90;91.80
48579;DHT22;34357;51.948;6.132;2022-09-27T06:26:30;8.90;91.80
48579;DHT22;34357;51.948;6.132;2022-09-27T06:29:08;8.90;91.90
48579;DHT22;34357;51.948;6.132;2022-09-27T06:31:37;8.90;91.90
48579;DHT22;34357;51.948;6.132;2022-09-27T06:34:22;8.90;91.90
48579;DHT22;34357;51.948;6.132;2022-09-27T06:36:49;8.90;91.70
48579;DHT22;34357;51.948;6.132;2022-09-27T06:39:15;9.20;91.70
48579;DHT22;34357;51.948;6.132;2022-09-27T06:41:59;9.60;91.30
48579;DHT22;34357;51.948;6.132;2022-09-27T06:44:48;9.90;90.00
48579;DHT22;34357;51.948;6.132;2022-09-27T06:47:36;10.20;89.20
48579;DHT22;34357;51.948;6.132;2022-09-27T06:50:22;10.00;88.00
48579;DHT22;34357;51.948;6.132;2022-09-27T06:52:49;9.90;88.50
48579;DHT22;34357;51.948;6.132;2022-09-27T06:55:16;9.90;89.10
48579;DHT22;34357;51.948;6.132;2022-09-27T06:57:42;10.00;88.90
48579;DHT22;34357;51.948;6.132;2022-09-27T07:00:27;10.10;88.40
48579;DHT22;34357;51.948;6.132;2022-09-27T07:03:16;10.10;88.30
48579;DHT22;34357;51.948;6.132;2022-09-27T07:06:02;10.20;88.70
48579;DHT22;34357;51.948;6.132;2022-09-27T07:08:40;10.30;88.50
48579;DHT22;34357;51.948;6.132;2022-09-27T07:11:07;10.00;88.70
48579;DHT22;34357;51.948;6.132;2022-09-27T07:13:34;9.90;88.90
48579;DHT22;34357;51.948;6.132;2022-09-27T07:16:05;9.90;89.40
48579;DHT22;34357;51.948;6.132;2022-09-27T07:18:32;9.90;89.60
48579;DHT22;34357;51.948;6.132;2022-09-27T07:20:59;10.30;89.80
48579;DHT22;34357;51.948;6.132;2022-09-27T07:23:26;10.30;89.30
48579;DHT22;34357;51.948;6.132;2022-09-27T07:25:53;10.60;88.70
48579;DHT22;34357;51.948;6.132;2022-09-27T07:28:19;10.60;88.10
48579;DHT22;34357;51.948;6.132;2022-09-27T07:30:46;10.70;88.70
48579;DHT22;34357;51.948;6.132;2022-09-27T07:33:12;10.30;88.60
48579;DHT22;34357;51.948;6.132;2022-09-27T07:35:39;10.30;88.90
48579;DHT22;34357;51.948;6.132;2022-09-27T07:38:10;10.20;89.40
48579;DHT22;34357;51.948;6.132;2022-09-27T07:40:39;10.10;89.90
48579;DHT22;34357;51.948;6.132;2022-09-27T07:43:05;10.10;90.50
48579;DHT22;34357;51.948;6.132;2022-09-27T07:45:33;10.00;90.60
48579;DHT22;34357;51.948;6.132;2022-09-27T07:48:09;10.10;90.70
48579;DHT22;34357;51.948;6.132;2022-09-27T07:50:55;10.10;90.90
48579;DHT22;34357;51.948;6.132;2022-09-27T07:53:39;10.20;90.70
48579;DHT22;34357;51.948;6.132;2022-09-27T07:56:24;10.20;90.60
48579;DHT22;34357;51.948;6.132;2022-09-27T07:58:49;10.20;90.80
48579;DHT22;34357;51.948;6.132;2022-09-27T08:01:15;10.20;90.60
48579;DHT22;34357;51.948;6.132;2022-09-27T08:03:41;10.30;90.60
48579;DHT22;34357;51.948;6.132;2022-09-27T08:06:07;10.40;90.90
48579;DHT22;34357;51.948;6.132;2022-09-27T08:08:33;10.40;90.90
48579;DHT22;34357;51.948;6.132;2022-09-27T08:11:00;10.50;90.40
48579;DHT22;34357;51.948;6.132;2022-09-27T08:13:27;10.70;89.40
48579;DHT22;34357;51.948;6.132;2022-09-27T08:16:00;10.80;90.00
48579;DHT22;34357;51.948;6.132;2022-09-27T08:18:27;10.80;89.80
48579;DHT22;34357;51.948;6.132;2022-09-27T08:20:56;10.80;89.50
48579;DHT22;34357;51.948;6.132;2022-09-27T08:23:48;10.80;89.60
48579;DHT22;34357;51.948;6.132;2022-09-27T08:26:22;10.80;89.40
48579;DHT22;34357;51.948;6.132;2022-09-27T08:28:54;10.70;89.50
48579;DHT22;34357;51.948;6.132;2022-09-27T08:31:23;10.80;89.40
48579;DHT22;34357;51.948;6.132;2022-09-27T08:33:52;10.90;89.40
48579;DHT22;34357;51.948;6.132;2022-09-27T08:36:19;11.00;89.10
48579;DHT22;34357;51.948;6.132;2022-09-27T08:38:49;11.00;88.50
48579;DHT22;34357;51.948;6.132;2022-09-27T08:41:38;11.00;88.40
48579;DHT22;34357;51.948;6.132;2022-09-27T08:52:39;11.20;88.40
48579;DHT22;34357;51.948;6.132;2022-09-27T08:55:39;11.20;88.40
48579;DHT22;34357;51.948;6.132;2022-09-27T09:00:53;11.10;88.00
48579;DHT22;34357;51.948;6.132;2022-09-27T09:03:24;10.90;87.60
48579;DHT22;34357;51.948;6.132;2022-09-27T09:06:10;10.90;88.20
48579;DHT22;34357;51.948;6.132;2022-09-27T09:26:19;11.10;88.20
48579;DHT22;34357;51.948;6.132;2022-09-27T09:31:45;11.30;88.50
48579;DHT22;34357;51.948;6.132;2022-09-27T09:37:30;11.40;87.40
48579;DHT22;34357;51.948;6.132;2022-09-27T09:42:59;11.40;87.10
48579;DHT22;34357;51.948;6.132;2022-09-27T09:45:34;11.40;87.10
48579;DHT22;34357;51.948;6.132;2022-09-27T09:48:32;11.60;87.30
48579;DHT22;34357;51.948;6.132;2022-09-27T09:51:04;11.60;86.00
48579;DHT22;34357;51.948;6.132;2022-09-27T09:56:22;11.40;86.50
48579;DHT22;34357;51.948;6.132;2022-09-27T09:59:01;11.30;86.40
48579;DHT22;34357;51.948;6.132;2022-09-27T10:01:44;11.30;86.80
48579;DHT22;34357;51.948;6.132;2022-09-27T10:04:25;11.30;87.00
48579;DHT22;34357;51.948;6.132;2022-09-27T10:06:56;11.20;87.30
48579;DHT22;34357;51.948;6.132;2022-09-27T10:09:25;11.10;86.80
48579;DHT22;34357;51.948;6.132;2022-09-27T10:12:10;11.10;87.80
48579;DHT22;34357;51.948;6.132;2022-09-27T10:14:37;10.90;87.70
48579;DHT22;34357;51.948;6.132;2022-09-27T10:17:10;10.80;88.30
48579;DHT22;34357;51.948;6.132;2022-09-27T10:19:39;10.80;89.00
48579;DHT22;34357;51.948;6.132;2022-09-27T10:22:23;10.70;89.60
48579;DHT22;34357;51.948;6.132;2022-09-27T10:24:55;10.70;90.00
48579;DHT22;34357;51.948;6.132;2022-09-27T10:27:43;10.70;90.00
48579;DHT22;34357;51.948;6.132;2022-09-27T10:32:53;10.90;90.00
48579;DHT22;34357;51.948;6.132;2022-09-27T10:35:43;10.90;89.40
48579;DHT22;34357;51.948;6.132;2022-09-27T10:40:50;11.20;89.20
48579;DHT22;34357;51.948;6.132;2022-09-27T10:43:27;11.20;88.80
48579;DHT22;34357;51.948;6.132;2022-09-27T10:46:02;11.20;88.70
48579;DHT22;34357;51.948;6.132;2022-09-27T10:48:31;11.00;86.90
48579;DHT22;34357;51.948;6.132;2022-09-27T10:51:02;10.90;87.10
48579;DHT22;34357;51.948;6.132;2022-09-27T10:53:45;10.90;87.60
48579;DHT22;34357;51.948;6.132;2022-09-27T10:56:25;11.00;87.70
48579;DHT22;34357;51.948;6.132;2022-09-27T10:58:52;11.10;87.90
48579;DHT22;34357;51.948;6.132;2022-09-27T11:01:21;11.30;87.90
48579;DHT22;34357;51.948;6.132;2022-09-27T11:04:03;11.10;87.30
48579;DHT22;34357;51.948;6.132;2022-09-27T11:06:32;11.10;87.60
48579;DHT22;34357;51.948;6.132;2022-09-27T11:09:19;11.30;87.90
48579;DHT22;34357;51.948;6.132;2022-09-27T11:11:49;11.30;87.70
48579;DHT22;34357;51.948;6.132;2022-09-27T11:14:21;11.40;87.30
48579;DHT22;34357;51.948;6.132;2022-09-27T11:16:57;11.30;87.30
48579;DHT22;34357;51.948;6.132;2022-09-27T11:24:26;11.40;87.30
48579;DHT22;34357;51.948;6.132;2022-09-27T11:30:16;11.20;86.10
48579;DHT22;34357;51.948;6.132;2022-09-27T11:33:37;11.30;86.10
48579;DHT22;34357;51.948;6.132;2022-09-27T11:37:02;11.40;85.50
48579;DHT22;34357;51.948;6.132;2022-09-27T11:42:45;11.50;85.20
48579;DHT22;34357;51.948;6.132;2022-09-27T11:53:47;11.50;83.70
48579;DHT22;34357;51.948;6.132;2022-09-27T11:56:47;11.50;82.80
48579;DHT22;34357;51.948;6.132;2022-09-27T11:59:38;11.60;83.10
48579;DHT22;34357;51.948;6.132;2022-09-27T12:02:12;11.90;83.40
48579;DHT22;34357;51.948;6.132;2022-09-27T12:05:01;11.90;83.00
48579;DHT22;34357;51.948;6.132;2022-09-27T12:10:26;11.90;83.30
48579;DHT22;34357;51.948;6.132;2022-09-27T12:12:55;12.00;83.90
48579;DHT22;34357;51.948;6.132;2022-09-27T12:15:28;12.00;83.80
48579;DHT22;34357;51.948;6.132;2022-09-27T12:20:48;12.10;83.50
48579;DHT22;34357;51.948;6.132;2022-09-27T12:23:22;11.90;82.10
48579;DHT22;34357;51.948;6.132;2022-09-27T12:26:12;11.90;80.70
48579;DHT22;34357;51.948;6.132;2022-09-27T12:28:44;12.00;81.00
48579;DHT22;34357;51.948;6.132;2022-09-27T12:31:17;11.80;81.50
48579;DHT22;34357;51.948;6.132;2022-09-27T12:34:14;11.70;81.60
48579;DHT22;34357;51.948;6.132;2022-09-27T12:36:46;11.60;82.90
48579;DHT22;34357;51.948;6.132;2022-09-27T12:39:18;11.60;83.40
48579;DHT22;34357;51.948;6.132;2022-09-27T12:42:02;11.50;82.00
48579;DHT22;34357;51.948;6.132;2022-09-27T12:44:41;11.40;82.60
48579;DHT22;34357;51.948;6.132;2022-09-27T12:51:12;11.90;82.50
48579;DHT22;34357;51.948;6.132;2022-09-27T12:53:19;12.10;82.80
48579;DHT22;34357;51.948;6.132;2022-09-27T13:01:19;12.30;77.50
48579;DHT22;34357;51.948;6.132;2022-09-27T13:14:27;11.90;81.00
48579;DHT22;34357;51.948;6.132;2022-09-27T13:16:54;11.90;81.10
48579;DHT22;34357;51.948;6.132;2022-09-27T13:19:39;11.80;79.50
48579;DHT22;34357;51.948;6.132;2022-09-27T13:25:02;11.60;80.20
48579;DHT22;34357;51.948;6.132;2022-09-27T13:27:48;11.70;80.90
48579;DHT22;34357;51.948;6.132;2022-09-27T13:38:30;11.70;79.30
48579;DHT22;34357;51.948;6.132;2022-09-27T13:41:17;11.50;80.20
48579;DHT22;34357;51.948;6.132;2022-09-27T13:46:49;11.70;81.60
48579;DHT22;34357;51.948;6.132;2022-09-27T13:49:28;11.50;81.30
48579;DHT22;34357;51.948;6.132;2022-09-27T13:52:34;11.50;81.80
48579;DHT22;34357;51.948;6.132;2022-09-27T13:55:37;11.50;82.60
48579;DHT22;34357;51.948;6.132;2022-09-27T14:00:52;11.50;82.80
48579;DHT22;34357;51.948;6.132;2022-09-27T14:03:31;11.60;83.80
48579;DHT22;34357;51.948;6.132;2022-09-27T14:06:02;11.50;82.80
48579;DHT22;34357;51.948;6.132;2022-09-27T14:08:38;11.40;82.80
48579;DHT22;34357;51.948;6.132;2022-09-27T14:11:14;11.30;83.50
48579;DHT22;34357;51.948;6.132;2022-09-27T14:13:44;11.20;83.90
48579;DHT22;34357;51.948;6.132;2022-09-27T14:16:16;11.20;83.70
48579;DHT22;34357;51.948;6.132;2022-09-27T14:19:03;11.20;83.20
48579;DHT22;34357;51.948;6.132;2022-09-27T14:21:37;11.30;83.50
48579;DHT22;34357;51.948;6.132;2022-09-27T14:24:30;11.30;82.70
48579;DHT22;34357;51.948;6.132;2022-09-27T14:30:05;11.50;81.90
48579;DHT22;34357;51.948;6.132;2022-09-27T14:32:33;11.40;82.10
48579;DHT22;34357;51.948;6.132;2022-09-27T14:35:20;11.50;82.50
48579;DHT22;34357;51.948;6.132;2022-09-27T14:38:09;11.50;82.20
48579;DHT22;34357;51.948;6.132;2022-09-27T14:40:42;11.40;81.60
48579;DHT22;34357;51.948;6.132;2022-09-27T14:43:19;11.50;81.90
48579;DHT22;34357;51.948;6.132;2022-09-27T14:45:47;11.50;82.20
48579;DHT22;34357;51.948;6.132;2022-09-27T14:48:33;11.40;82.00
48579;DHT22;34357;51.948;6.132;2022-09-27T14:51:15;11.40;82.40
48579;DHT22;34357;51.948;6.132;2022-09-27T14:53:52;11.40;81.50
48579;DHT22;34357;51.948;6.132;2022-09-27T14:56:29;11.40;81.10
48579;DHT22;34357;51.948;6.132;2022-09-27T14:59:01;11.40;81.50
48579;DHT22;34357;51.948;6.132;2022-09-27T15:01:29;11.40;81.80
48579;DHT22;34357;51.948;6.132;2022-09-27T15:04:03;11.40;82.20
48579;DHT22;34357;51.948;6.132;2022-09-27T15:06:29;11.30;81.20
48579;DHT22;34357;51.948;6.132;2022-09-27T15:08:55;11.30;81.40
48579;DHT22;34357;51.948;6.132;2022-09-27T15:11:21;11.30;82.30
48579;DHT22;34357;51.948;6.132;2022-09-27T15:13:50;11.30;82.10
48579;DHT22;34357;51.948;6.132;2022-09-27T15:16:19;11.20;81.90
48579;DHT22;34357;51.948;6.132;2022-09-27T15:18:47;11.10;81.90
48579;DHT22;34357;51.948;6.132;2022-09-27T15:21:26;11.10;81.90
48579;DHT22;34357;51.948;6.132;2022-09-27T15:23:53;11.00;82.00
48579;DHT22;34357;51.948;6.132;2022-09-27T15:26:37;11.10;82.70
48579;DHT22;34357;51.948;6.132;2022-09-27T15:29:06;11.00;82.30
48579;DHT22;34357;51.948;6.132;2022-09-27T15:31:42;10.90;81.40
48579;DHT22;34357;51.948;6.132;2022-09-27T15:34:18;10.90;81.30
48579;DHT22;34357;51.948;6.132;2022-09-27T15:39:18;10.90;81.60
48579;DHT22;34357;51.948;6.132;2022-09-27T15:47:04;10.90;82.80
48579;DHT22;34357;51.948;6.132;2022-09-27T15:49:44;10.80;82.90
48579;DHT22;34357;51.948;6.132;2022-09-27T15:52:40;10.80;83.50
48579;DHT22;34357;51.948;6.132;2022-09-27T15:55:11;10.70;83.30
48579;DHT22;34357;51.948;6.132;2022-09-27T15:57:38;10.70;84.10
48579;DHT22;34357;51.948;6.132;2022-09-27T16:00:05;10.70;83.80
48579;DHT22;34357;51.948;6.132;2022-09-27T16:02:37;10.70;84.50
48579;DHT22;34357;51.948;6.132;2022-09-27T16:05:03;10.80;83.90
48579;DHT22;34357;51.948;6.132;2022-09-27T16:07:29;10.80;83.60
48579;DHT22;34357;51.948;6.132;2022-09-27T16:09:54;10.70;82.60
48579;DHT22;34357;51.948;6.132;2022-09-27T16:12:21;10.80;83.30
48579;DHT22;34357;51.948;6.132;2022-09-27T16:14:47;10.70;82.80
48579;DHT22;34357;51.948;6.132;2022-09-27T16:17:13;10.70;83.50
48579;DHT22;34357;51.948;6.132;2022-09-27T16:19:39;10.70;83.40
48579;DHT22;34357;51.948;6.132;2022-09-27T16:22:05;10.60;83.30
48579;DHT22;34357;51.948;6.132;2022-09-27T16:24:31;10.60;83.70
48579;DHT22;34357;51.948;6.132;2022-09-27T16:26:57;10.60;84.10
48579;DHT22;34357;51.948;6.132;2022-09-27T16:29:23;10.60;84.50
48579;DHT22;34357;51.948;6.132;2022-09-27T16:31:49;10.60;84.80
48579;DHT22;34357;51.948;6.132;2022-09-27T16:34:15;10.50;84.20
48579;DHT22;34357;51.948;6.132;2022-09-27T16:36:42;10.60;84.70
48579;DHT22;34357;51.948;6.132;2022-09-27T16:39:11;10.60;85.00
48579;DHT22;34357;51.948;6.132;2022-09-27T16:41:37;10.50;85.10
48579;DHT22;34357;51.948;6.132;2022-09-27T16:44:13;10.60;85.40
48579;DHT22;34357;51.948;6.132;2022-09-27T16:46:42;10.50;85.30
48579;DHT22;34357;51.948;6.132;2022-09-27T16:49:11;10.50;85.90
48579;DHT22;34357;51.948;6.132;2022-09-27T16:52:00;10.50;85.90
48579;DHT22;34357;51.948;6.132;2022-09-27T16:54:27;10.50;86.00
48579;DHT22;34357;51.948;6.132;2022-09-27T16:56:55;10.60;85.90
48579;DHT22;34357;51.948;6.132;2022-09-27T16:59:21;10.60;85.30
48579;DHT22;34357;51.948;6.132;2022-09-27T17:01:49;10.60;84.30
48579;DHT22;34357;51.948;6.132;2022-09-27T17:04:15;10.50;84.00
48579;DHT22;34357;51.948;6.132;2022-09-27T17:06:41;10.50;83.00
48579;DHT22;34357;51.948;6.132;2022-09-27T17:09:07;10.50;82.80
48579;DHT22;34357;51.948;6.132;2022-09-27T17:11:34;10.50;82.60
48579;DHT22;34357;51.948;6.132;2022-09-27T17:13:59;10.50;82.60
48579;DHT22;34357;51.948;6.132;2022-09-27T17:16:26;10.50;82.80
48579;DHT22;34357;51.948;6.132;2022-09-27T17:18:53;10.40;83.20
48579;DHT22;34357;51.948;6.132;2022-09-27T17:21:19;10.40;83.30
48579;DHT22;34357;51.948;6.132;2022-09-27T17:23:45;10.40;83.60
48579;DHT22;34357;51.948;6.132;2022-09-27T17:26:29;10.30;83.80
48579;DHT22;34357;51.948;6.132;2022-09-27T17:28:57;10.30;84.40
48579;DHT22;34357;51.948;6.132;2022-09-27T17:31:26;10.30;84.80
48579;DHT22;34357;51.948;6.132;2022-09-27T17:33:53;10.30;85.00
48579;DHT22;34357;51.948;6.132;2022-09-27T17:36:25;10.30;85.30
48579;DHT22;34357;51.948;6.132;2022-09-27T17:38:51;10.30;85.50
48579;DHT22;34357;51.948;6.132;2022-09-27T17:41:20;10.30;85.80
48579;DHT22;34357;51.948;6.132;2022-09-27T17:43:50;10.20;85.90
48579;DHT22;34357;51.948;6.132;2022-09-27T17:46:18;10.20;86.10
48579;DHT22;34357;51.948;6.132;2022-09-27T17:48:45;10.20;86.80
48579;DHT22;34357;51.948;6.132;2022-09-27T17:51:30;10.20;86.80
48579;DHT22;34357;51.948;6.132;2022-09-27T17:53:56;10.20;87.10
48579;DHT22;34357;51.948;6.132;2022-09-27T17:56:22;10.20;87.10
48579;DHT22;34357;51.948;6.132;2022-09-27T17:58:50;10.10;87.20
48579;DHT22;34357;51.948;6.132;2022-09-27T18:01:17;10.10;87.20
48579;DHT22;34357;51.948;6.132;2022-09-27T18:03:44;10.00;87.20
48579;DHT22;34357;51.948;6.132;2022-09-27T18:06:12;9.90;87.10
48579;DHT22;34357;51.948;6.132;2022-09-27T18:08:38;9.90;87.30
48579;DHT22;34357;51.948;6.132;2022-09-27T18:11:05;9.90;87.60
48579;DHT22;34357;51.948;6.132;2022-09-27T18:13:31;9.90;88.00
48579;DHT22;34357;51.948;6.132;2022-09-27T18:16:03;9.90;87.90
48579;DHT22;34357;51.948;6.132;2022-09-27T18:18:31;9.90;88.10
48579;DHT22;34357;51.948;6.132;2022-09-27T18:21:01;9.90;88.10
48579;DHT22;34357;51.948;6.132;2022-09-27T18:23:31;9.80;87.90
48579;DHT22;34357;51.948;6.132;2022-09-27T18:25:58;9.80;88.00
48579;DHT22;34357;51.948;6.132;2022-09-27T18:28:27;9.80;87.90
48579;DHT22;34357;51.948;6.132;2022-09-27T18:30:54;9.80;88.00
48579;DHT22;34357;51.948;6.132;2022-09-27T18:33:20;9.70;88.10
48579;DHT22;34357;51.948;6.132;2022-09-27T18:35:46;9.70;87.90
48579;DHT22;34357;51.948;6.132;2022-09-27T18:38:12;9.70;88.10
48579;DHT22;34357;51.948;6.132;2022-09-27T18:40:38;9.80;88.10
48579;DHT22;34357;51.948;6.132;2022-09-27T18:43:04;9.60;88.10
48579;DHT22;34357;51.948;6.132;2022-09-27T18:45:33;9.70;88.10
48579;DHT22;34357;51.948;6.132;2022-09-27T18:47:59;9.70;88.10
48579;DHT22;34357;51.948;6.132;2022-09-27T18:50:25;9.60;88.00
48579;DHT22;34357;51.948;6.132;2022-09-27T18:52:51;9.70;88.20
48579;DHT22;34357;51.948;6.132;2022-09-27T18:55:17;9.70;88.10
48579;DHT22;34357;51.948;6.132;2022-09-27T18:57:43;9.70;88.10
48579;DHT22;34357;51.948;6.132;2022-09-27T19:00:09;9.60;88.20
48579;DHT22;34357;51.948;6.132;2022-09-27T19:02:35;9.50;88.40
48579;DHT22;34357;51.948;6.132;2022-09-27T19:05:01;9.60;88.40